createdAt,value
2022-11-28T00:00:22.432Z,3.99
2022-11-28T00:03:09.869Z,3.74
2022-11-28T00:05:36.942Z,3.68
2022-11-28T00:08:04.814Z,3.73
2022-11-28T00:10:33.103Z,3.76
2022-11-28T00:13:00.543Z,3.64
2022-11-28T00:15:27.539Z,3.67
2022-11-28T00:17:54.745Z,3.58
2022-11-28T00:20:21.677Z,3.53
2022-11-28T00:22:48.783Z,3.54
2022-11-28T00:25:15.890Z,3.61
2022-11-28T00:27:44.506Z,3.71
2022-11-28T00:30:12.216Z,3.68
2022-11-28T00:32:39.582Z,3.61
2022-11-28T00:35:06.956Z,3.53
2022-11-28T00:37:34.233Z,3.47
2022-11-28T00:40:01.131Z,3.49
2022-11-28T00:42:28.710Z,3.56
2022-11-28T00:44:56.939Z,3.65
2022-11-28T00:47:24.031Z,3.69
2022-11-28T00:49:51.868Z,3.71
2022-11-28T00:52:19.273Z,3.56
2022-11-28T00:54:46.411Z,3.42
2022-11-28T00:57:13.656Z,3.41
2022-11-28T00:59:40.682Z,3.51
2022-11-28T01:02:09.353Z,3.62
2022-11-28T01:04:36.359Z,3.63
2022-11-28T01:07:03.535Z,3.66
2022-11-28T01:09:30.601Z,3.69
2022-11-28T01:11:57.818Z,3.76
2022-11-28T01:14:25.979Z,3.75
2022-11-28T01:16:53.288Z,3.66
2022-11-28T01:19:21.755Z,3.59
2022-11-28T01:21:49.308Z,3.46
2022-11-28T01:24:17.200Z,3.48
2022-11-28T01:26:44.708Z,3.24
2022-11-28T01:29:11.776Z,3.12
2022-11-28T01:31:39.793Z,3.00
2022-11-28T01:34:06.911Z,2.96
2022-11-28T01:36:35.583Z,2.90
2022-11-28T01:39:02.512Z,2.84
2022-11-28T01:41:30.083Z,2.89
2022-11-28T01:43:59.163Z,2.94
2022-11-28T01:46:26.648Z,2.95
2022-11-28T01:48:56.628Z,2.99
2022-11-28T01:51:24.466Z,3.02
2022-11-28T01:53:53.532Z,2.94
2022-11-28T01:56:25.197Z,2.79
2022-11-28T01:58:57.731Z,2.82
2022-11-28T02:01:25.812Z,2.84
2022-11-28T02:03:54.325Z,2.78
2022-11-28T02:06:24.422Z,2.73
2022-11-28T02:08:53.438Z,2.72
2022-11-28T02:11:49.847Z,2.71
2022-11-28T02:14:33.396Z,2.65
2022-11-28T02:17:13.327Z,2.67
2022-11-28T02:20:24.712Z,2.56
2022-11-28T02:22:59.319Z,2.54
2022-11-28T02:26:02.705Z,2.61
2022-11-28T02:29:03.339Z,2.60
2022-11-28T02:32:06.857Z,2.67
2022-11-28T02:34:47.263Z,2.73
2022-11-28T02:37:26.125Z,2.62
2022-11-28T02:40:03.323Z,2.69
2022-11-28T02:42:40.322Z,2.85
2022-11-28T02:45:13.703Z,2.99
2022-11-28T02:47:45.932Z,3.06
2022-11-28T02:50:16.085Z,2.90
2022-11-28T02:52:47.403Z,2.89
2022-11-28T02:55:15.523Z,2.90
2022-11-28T02:57:47.895Z,2.91
2022-11-28T03:00:28.029Z,2.86
2022-11-28T03:03:15.949Z,2.77
2022-11-28T03:05:49.010Z,2.69
2022-11-28T03:08:33.692Z,2.59
2022-11-28T03:11:06.577Z,2.50
2022-11-28T03:13:41.979Z,2.45
2022-11-28T03:16:20.966Z,2.28
2022-11-28T03:19:00.095Z,2.23
2022-11-28T03:21:38.127Z,2.04
2022-11-28T03:24:10.378Z,2.18
2022-11-28T03:26:47.131Z,2.13
2022-11-28T03:29:20.826Z,2.07
2022-11-28T03:31:54.733Z,2.01
2022-11-28T03:34:29.313Z,1.90
2022-11-28T03:37:01.411Z,1.81
2022-11-28T03:39:31.986Z,1.68
2022-11-28T03:42:05.916Z,1.59
2022-11-28T03:44:40.567Z,1.60
2022-11-28T03:47:08.939Z,1.59
2022-11-28T03:49:40.351Z,1.46
2022-11-28T03:52:11.448Z,1.34
2022-11-28T03:54:47.661Z,1.17
2022-11-28T03:57:22.891Z,1.05
2022-11-28T03:59:52.416Z,1.14
2022-11-28T04:02:27.581Z,1.26
2022-11-28T04:05:02.244Z,1.33
2022-11-28T04:07:37.033Z,1.40
2022-11-28T04:10:09.258Z,1.26
2022-11-28T04:12:46.668Z,1.23
2022-11-28T04:15:17.653Z,1.16
2022-11-28T04:17:52.045Z,1.20
2022-11-28T04:20:28.685Z,1.12
2022-11-28T04:23:01.196Z,1.20
2022-11-28T04:25:32.591Z,1.03
2022-11-28T04:28:04.343Z,0.85
2022-11-28T04:30:32.302Z,0.94
2022-11-28T04:33:03.919Z,1.02
2022-11-28T04:35:37.610Z,1.16
2022-11-28T04:38:06.703Z,1.31
2022-11-28T04:40:38.859Z,1.48
2022-11-28T04:43:10.928Z,1.59
2022-11-28T04:45:44.392Z,1.69
2022-11-28T04:48:11.641Z,1.80
2022-11-28T04:50:46.909Z,1.67
2022-11-28T04:53:34.822Z,1.45
2022-11-28T04:56:07.525Z,1.38
2022-11-28T04:58:38.161Z,1.49
2022-11-28T05:01:10.283Z,1.51
2022-11-28T05:03:42.435Z,1.47
2022-11-28T05:06:23.999Z,1.49
2022-11-28T05:08:51.147Z,1.34
2022-11-28T05:11:18.648Z,1.33
2022-11-28T05:13:45.956Z,1.27
2022-11-28T05:16:17.571Z,1.32
2022-11-28T05:18:44.888Z,1.27
2022-11-28T05:21:13.623Z,1.25
2022-11-28T05:23:42.561Z,1.23
2022-11-28T05:26:10.472Z,1.28
2022-11-28T05:28:37.609Z,1.34
2022-11-28T05:31:06.441Z,1.35
2022-11-28T05:33:33.546Z,1.32
2022-11-28T05:36:12.395Z,1.39
2022-11-28T05:38:41.591Z,1.32
2022-11-28T05:41:09.695Z,1.29
2022-11-28T05:43:36.914Z,1.34
2022-11-28T05:46:05.864Z,1.33
2022-11-28T05:48:32.895Z,1.40
2022-11-28T05:51:00.171Z,1.43
2022-11-28T05:53:27.398Z,1.34
2022-11-28T05:55:55.920Z,1.11
2022-11-28T05:58:22.990Z,0.93
2022-11-28T06:00:50.241Z,0.95
2022-11-28T06:03:17.177Z,1.14
2022-11-28T06:05:44.541Z,1.18
2022-11-28T06:08:12.813Z,0.95
2022-11-28T06:10:40.511Z,0.92
2022-11-28T06:13:09.176Z,0.74
2022-11-28T06:15:38.252Z,0.66
2022-11-28T06:18:05.407Z,0.70
2022-11-28T06:20:35.313Z,0.62
2022-11-28T06:23:04.955Z,0.64
2022-11-28T06:25:32.275Z,0.66
2022-11-28T06:27:59.216Z,0.62
2022-11-28T06:30:27.704Z,0.63
2022-11-28T06:32:54.628Z,0.63
2022-11-28T06:35:21.981Z,0.61
2022-11-28T06:37:48.916Z,0.83
2022-11-28T06:40:16.560Z,1.15
2022-11-28T06:42:43.479Z,1.36
2022-11-28T06:45:11.541Z,1.50
2022-11-28T06:47:39.864Z,1.47
2022-11-28T06:50:09.760Z,1.56
2022-11-28T06:52:36.774Z,1.58
2022-11-28T06:55:04.197Z,1.62
2022-11-28T06:57:32.740Z,1.54
2022-11-28T07:00:03.722Z,1.26
2022-11-28T07:02:30.710Z,1.20
2022-11-28T07:05:00.645Z,1.27
2022-11-28T07:07:27.668Z,1.19
2022-11-28T07:09:54.928Z,1.00
2022-11-28T07:12:21.915Z,0.79
2022-11-28T07:14:49.143Z,0.66
2022-11-28T07:17:16.151Z,0.60
2022-11-28T07:19:43.682Z,0.69
2022-11-28T07:22:12.243Z,0.74
2022-11-28T07:24:44.607Z,0.89
2022-11-28T07:27:11.583Z,1.09
2022-11-28T07:29:38.792Z,1.10
2022-11-28T07:32:10.737Z,1.13
2022-11-28T07:34:38.350Z,1.28
2022-11-28T07:37:05.250Z,1.12
2022-11-28T07:39:34.337Z,1.00
2022-11-28T07:42:01.126Z,1.10
2022-11-28T07:44:28.652Z,1.17
2022-11-28T07:46:56.073Z,1.24
2022-11-28T07:49:23.293Z,1.38
2022-11-28T07:51:50.312Z,1.41
2022-11-28T07:54:17.552Z,1.34
2022-11-28T07:59:33.318Z,1.65
2022-11-28T08:02:00.237Z,1.90
2022-11-28T08:04:27.814Z,2.10
2022-11-28T08:06:55.432Z,2.19
2022-11-28T08:09:23.067Z,2.23
2022-11-28T08:11:52.576Z,2.38
2022-11-28T08:14:20.334Z,2.33
2022-11-28T08:16:47.440Z,2.40
2022-11-28T08:19:14.635Z,2.28
2022-11-28T08:21:42.035Z,2.28
2022-11-28T08:24:10.592Z,2.41
2022-11-28T08:26:38.318Z,2.31
2022-11-28T08:29:06.935Z,2.17
2022-11-28T08:31:35.403Z,2.16
2022-11-28T08:34:05.884Z,2.22
2022-11-28T08:36:33.088Z,2.32
2022-11-28T08:39:24.111Z,2.56
2022-11-28T08:41:50.442Z,2.81
2022-11-28T08:44:19.269Z,2.91
2022-11-28T08:46:46.252Z,3.10
2022-11-28T08:49:14.597Z,3.25
2022-11-28T08:51:41.480Z,3.24
2022-11-28T08:54:09.131Z,3.40
2022-11-28T08:56:36.137Z,3.44
2022-11-28T08:59:04.168Z,3.66
2022-11-28T09:01:32.731Z,3.79
2022-11-28T09:04:00.761Z,4.01
2022-11-28T09:06:27.906Z,4.22
2022-11-28T09:08:55.166Z,4.28
2022-11-28T09:11:23.024Z,4.36
2022-11-28T09:13:50.664Z,4.57
2022-11-28T09:16:18.066Z,4.72
2022-11-28T09:18:46.811Z,4.83
2022-11-28T09:21:15.405Z,4.89
2022-11-28T09:23:44.259Z,4.98
2022-11-28T09:26:12.614Z,5.19
2022-11-28T09:28:40.718Z,5.42
2022-11-28T09:31:08.492Z,5.47
2022-11-28T09:33:36.135Z,5.49
2022-11-28T09:36:10.354Z,5.65
2022-11-28T09:38:38.021Z,5.59
2022-11-28T09:41:31.121Z,5.72
2022-11-28T09:44:03.141Z,5.84
2022-11-28T09:46:34.382Z,5.97
2022-11-28T09:49:09.337Z,5.94
2022-11-28T09:51:48.545Z,6.11
2022-11-28T09:54:22.577Z,6.42
2022-11-28T09:56:50.721Z,6.74
2022-11-28T09:59:23.381Z,7.01
2022-11-28T10:01:56.750Z,7.24
2022-11-28T10:04:33.433Z,7.49
2022-11-28T10:07:11.034Z,7.62
2022-11-28T10:09:51.759Z,7.58
2022-11-28T10:12:30.777Z,7.51
2022-11-28T10:15:09.365Z,7.67
2022-11-28T10:17:44.755Z,7.89
2022-11-28T10:20:17.895Z,8.09
2022-11-28T10:22:50.769Z,8.20
2022-11-28T10:25:22.806Z,8.29
2022-11-28T10:27:51.187Z,8.35
2022-11-28T10:30:22.910Z,8.46
2022-11-28T10:32:57.165Z,8.53
2022-11-28T10:35:30.850Z,8.62
2022-11-28T10:37:59.251Z,8.75
2022-11-28T10:40:39.912Z,9.01
2022-11-28T10:43:17.458Z,9.19
2022-11-28T10:45:51.135Z,9.18
2022-11-28T10:48:39.544Z,9.21
2022-11-28T10:51:22.073Z,9.16
2022-11-28T10:54:06.892Z,9.24
2022-11-28T10:56:43.029Z,9.24
2022-11-28T10:59:22.904Z,9.20
2022-11-28T11:01:52.223Z,9.19
2022-11-28T11:04:22.675Z,9.27
2022-11-28T11:07:15.045Z,9.33
2022-11-28T11:09:46.601Z,9.48
2022-11-28T11:12:20.640Z,9.47
2022-11-28T11:14:50.004Z,9.38
2022-11-28T11:17:28.958Z,9.36
2022-11-28T11:19:58.341Z,9.25
2022-11-28T11:22:29.140Z,9.21
2022-11-28T11:25:17.471Z,9.10
2022-11-28T11:27:49.628Z,9.07
2022-11-28T11:30:22.600Z,9.10
2022-11-28T11:32:51.748Z,9.11
2022-11-28T11:35:23.810Z,9.21
2022-11-28T11:37:51.920Z,9.40
2022-11-28T11:40:26.346Z,9.51
2022-11-28T11:42:55.792Z,9.37
2022-11-28T11:45:31.437Z,9.22
2022-11-28T11:47:58.976Z,9.18
2022-11-28T11:50:29.868Z,9.27
2022-11-28T11:53:02.724Z,9.31
2022-11-28T11:55:33.893Z,9.33
2022-11-28T11:58:06.076Z,9.38
2022-11-28T12:00:37.743Z,9.25
2022-11-28T12:03:12.350Z,9.48
2022-11-28T12:06:13.394Z,9.51
2022-11-28T12:08:43.076Z,9.55
2022-11-28T12:11:18.004Z,9.47
2022-11-28T12:13:45.817Z,9.34
2022-11-28T12:16:34.977Z,9.15
2022-11-28T12:19:14.666Z,9.09
2022-11-28T12:21:55.062Z,9.18
2022-11-28T12:24:30.421Z,9.21
2022-11-28T12:27:06.766Z,9.32
2022-11-28T12:29:49.067Z,9.40
2022-11-28T12:32:28.407Z,9.43
2022-11-28T12:35:11.282Z,9.40
2022-11-28T12:40:48.612Z,9.29
2022-11-28T12:43:30.555Z,9.15
2022-11-28T12:46:06.797Z,9.05
2022-11-28T12:48:53.573Z,8.99
2022-11-28T12:51:36.666Z,8.86
2022-11-28T12:54:22.020Z,8.78
2022-11-28T12:56:58.774Z,8.81
2022-11-28T12:59:36.889Z,8.72
2022-11-28T13:02:29.880Z,8.65
2022-11-28T13:05:12.065Z,8.54
2022-11-28T13:07:48.131Z,8.43
2022-11-28T13:10:23.325Z,8.34
2022-11-28T13:12:58.539Z,8.35
2022-11-28T13:15:44.391Z,8.48
2022-11-28T13:18:24.322Z,8.58
2022-11-28T13:20:55.829Z,8.68
2022-11-28T13:23:29.538Z,8.64
2022-11-28T13:26:05.633Z,8.58
2022-11-28T13:28:39.757Z,8.50
2022-11-28T13:31:22.710Z,8.51
2022-11-28T13:33:53.531Z,8.56
2022-11-28T13:39:30.945Z,8.55
2022-11-28T13:45:00.496Z,8.65
2022-11-28T13:47:31.894Z,8.74
2022-11-28T13:50:36.308Z,8.83
2022-11-28T13:53:20.152Z,8.67
2022-11-28T13:55:48.787Z,8.68
2022-11-28T13:58:25.994Z,8.57
2022-11-28T14:01:03.460Z,8.73
2022-11-28T14:03:34.490Z,8.70
2022-11-28T14:06:04.400Z,8.66
2022-11-28T14:08:34.885Z,8.67
2022-11-28T14:11:25.796Z,8.68
2022-11-28T14:14:08.929Z,8.66
2022-11-28T14:16:52.126Z,8.62
2022-11-28T14:19:32.297Z,8.59
2022-11-28T14:22:14.518Z,8.53
2022-11-28T14:24:54.399Z,8.35
2022-11-28T14:27:25.244Z,8.15
2022-11-28T14:29:54.879Z,8.05
2022-11-28T14:32:33.297Z,7.97
2022-11-28T14:35:02.912Z,7.95
2022-11-28T14:37:53.132Z,7.92
2022-11-28T14:41:05.747Z,7.87
2022-11-28T14:43:35.723Z,7.81
2022-11-28T14:46:33.231Z,7.74
2022-11-28T14:49:19.244Z,7.70
2022-11-28T14:52:30.692Z,7.64
2022-11-28T14:54:55.095Z,7.54
2022-11-28T14:57:27.990Z,7.46
2022-11-28T14:59:57.879Z,7.30
2022-11-28T15:02:48.311Z,7.39
2022-11-28T15:05:29.833Z,7.33
2022-11-28T15:08:16.331Z,7.27
2022-11-28T15:10:50.729Z,7.23
2022-11-28T15:13:38.943Z,7.21
2022-11-28T15:16:11.891Z,7.16
2022-11-28T15:18:43.346Z,7.13
2022-11-28T15:21:16.385Z,7.10
2022-11-28T15:23:46.828Z,7.01
2022-11-28T15:26:19.984Z,6.96
2022-11-28T15:28:46.964Z,6.89
2022-11-28T15:31:21.703Z,6.85
2022-11-28T15:33:50.147Z,6.62
2022-11-28T15:36:26.174Z,6.78
2022-11-28T15:38:55.198Z,6.75
2022-11-28T15:41:24.240Z,6.70
2022-11-28T15:43:52.312Z,6.64
2022-11-28T15:46:26.002Z,6.61
2022-11-28T15:48:53.768Z,6.57
2022-11-28T15:51:29.614Z,6.48
2022-11-28T15:53:59.734Z,6.51
2022-11-28T15:56:27.011Z,6.48
2022-11-28T15:58:54.547Z,6.45
2022-11-28T16:01:23.730Z,6.41
2022-11-28T16:03:53.600Z,6.35
2022-11-28T16:06:23.654Z,6.17
2022-11-28T16:08:54.425Z,6.28
2022-11-28T16:11:25.339Z,6.18
2022-11-28T16:13:54.120Z,6.19
2022-11-28T16:16:25.650Z,6.15
2022-11-28T16:18:57.010Z,6.11
2022-11-28T16:21:28.560Z,6.00
2022-11-28T16:24:00.767Z,5.96
2022-11-28T16:26:35.022Z,5.92
2022-11-28T16:29:11.853Z,5.88
2022-11-28T16:31:39.834Z,5.81
2022-11-28T16:34:12.483Z,5.76
2022-11-28T16:36:40.069Z,5.61
2022-11-28T16:39:14.540Z,5.51
2022-11-28T16:41:50.144Z,5.44
2022-11-28T16:44:22.116Z,5.34
2022-11-28T16:46:51.800Z,5.25
2022-11-28T16:49:34.994Z,5.22
2022-11-28T16:52:49.551Z,5.16
2022-11-28T16:55:44.701Z,5.13
2022-11-28T16:58:16.558Z,5.03
2022-11-28T17:00:47.831Z,5.02
2022-11-28T17:03:44.916Z,4.96
2022-11-28T17:06:16.675Z,4.92
2022-11-28T17:08:44.076Z,4.91
2022-11-28T17:11:14.267Z,4.92
2022-11-28T17:13:42.937Z,4.95
2022-11-28T17:16:21.356Z,4.93
2022-11-28T17:18:48.979Z,4.96
2022-11-28T17:21:18.606Z,5.01
2022-11-28T17:23:46.219Z,5.03
2022-11-28T17:26:13.146Z,5.00
2022-11-28T17:28:40.475Z,4.95
2022-11-28T17:31:11.252Z,4.95
2022-11-28T17:33:43.226Z,4.89
2022-11-28T17:36:13.457Z,4.84
2022-11-28T17:38:40.860Z,4.81
2022-11-28T17:41:12.944Z,4.76
2022-11-28T17:43:40.881Z,4.76
2022-11-28T17:46:11.721Z,4.74
2022-11-28T17:48:39.108Z,4.69
2022-11-28T17:51:08.766Z,4.46
2022-11-28T17:53:40.391Z,4.27
2022-11-28T17:56:10.607Z,4.08
2022-11-28T17:58:38.412Z,4.04
2022-11-28T18:01:11.423Z,4.04
2022-11-28T18:03:39.938Z,4.07
2022-11-28T18:06:14.095Z,4.09
2022-11-28T18:08:41.303Z,4.03
2022-11-28T18:11:11.123Z,3.91
2022-11-28T18:13:38.608Z,3.83
2022-11-28T18:16:06.303Z,3.78
2022-11-28T18:18:35.052Z,3.75
2022-11-28T18:21:02.079Z,3.73
2022-11-28T18:23:29.389Z,3.83
2022-11-28T18:25:56.651Z,3.85
2022-11-28T18:28:24.678Z,3.78
2022-11-28T18:30:51.793Z,3.70
2022-11-28T18:33:19.027Z,3.75
2022-11-28T18:35:47.640Z,3.77
2022-11-28T18:38:14.898Z,3.84
2022-11-28T18:40:41.784Z,3.88
2022-11-28T18:43:10.380Z,3.94
2022-11-28T18:45:37.359Z,3.97
2022-11-28T18:48:04.913Z,3.97
2022-11-28T18:50:32.206Z,3.95
2022-11-28T18:53:00.908Z,3.99
2022-11-28T18:55:27.866Z,4.01
2022-11-28T18:57:55.147Z,3.97
2022-11-28T19:00:23.316Z,3.92
2022-11-28T19:02:52.125Z,3.90
2022-11-28T19:05:19.218Z,3.87
2022-11-28T19:07:46.432Z,3.84
2022-11-28T19:10:14.912Z,3.87
2022-11-28T19:12:42.223Z,4.01
2022-11-28T19:15:11.730Z,3.91
2022-11-28T19:17:39.118Z,4.10
2022-11-28T19:20:07.311Z,4.13
2022-11-28T19:22:35.669Z,4.16
2022-11-28T19:25:02.719Z,4.25
2022-11-28T19:27:31.404Z,4.08
2022-11-28T19:29:58.319Z,4.25
2022-11-28T19:32:27.685Z,4.32
2022-11-28T19:34:54.784Z,4.44
2022-11-28T19:37:22.207Z,4.45
2022-11-28T19:39:49.096Z,4.48
2022-11-28T19:42:16.390Z,4.42
2022-11-28T19:44:44.672Z,4.46
2022-11-28T19:47:11.916Z,4.48
2022-11-28T19:49:39.000Z,4.40
2022-11-28T19:52:06.255Z,4.41
2022-11-28T19:54:34.776Z,4.46
2022-11-28T19:57:02.022Z,4.50
2022-11-28T19:59:30.448Z,4.29
2022-11-28T20:01:59.051Z,4.48
2022-11-28T20:04:26.403Z,4.49
2022-11-28T20:06:53.651Z,4.51
2022-11-28T20:09:20.569Z,4.59
2022-11-28T20:11:47.715Z,4.60
2022-11-28T20:14:16.857Z,4.68
2022-11-28T20:16:44.687Z,4.82
2022-11-28T20:19:14.812Z,4.85
2022-11-28T20:21:42.239Z,4.92
2022-11-28T20:24:10.314Z,4.95
2022-11-28T20:26:39.982Z,4.97
2022-11-28T20:29:07.969Z,5.02
2022-11-28T20:31:36.988Z,5.05
2022-11-28T20:34:04.578Z,5.08
2022-11-28T20:36:34.116Z,4.99
2022-11-28T20:39:03.755Z,4.96
2022-11-28T20:41:31.322Z,4.90
2022-11-28T20:43:59.863Z,4.93
2022-11-28T20:46:30.184Z,5.01
2022-11-28T20:48:59.044Z,4.90
2022-11-28T20:51:28.491Z,4.90
2022-11-28T20:53:57.459Z,4.87
2022-11-28T20:56:25.501Z,4.84
2022-11-28T20:58:55.315Z,4.80
2022-11-28T21:01:24.809Z,4.83
2022-11-28T21:03:52.767Z,4.69
2022-11-28T21:06:20.477Z,4.69
2022-11-28T21:08:47.888Z,4.66
2022-11-28T21:11:43.531Z,4.63
2022-11-28T21:14:06.567Z,4.57
2022-11-28T21:16:35.127Z,4.38
2022-11-28T21:19:05.222Z,4.44
2022-11-28T21:21:33.617Z,4.38
2022-11-28T21:24:03.434Z,4.34
2022-11-28T21:26:37.635Z,4.27
2022-11-28T21:29:09.283Z,4.24
2022-11-28T21:31:39.577Z,4.22
2022-11-28T21:34:06.591Z,4.19
2022-11-28T21:36:33.743Z,4.19
2022-11-28T21:39:01.752Z,4.15
2022-11-28T21:41:31.161Z,4.10
2022-11-28T21:43:59.768Z,4.11
2022-11-28T21:46:27.938Z,4.10
2022-11-28T21:48:55.042Z,4.05
2022-11-28T21:51:25.675Z,4.02
2022-11-28T21:53:58.983Z,3.99
2022-11-28T21:56:26.666Z,3.92
2022-11-28T21:58:54.002Z,3.93
2022-11-28T22:01:22.608Z,3.90
2022-11-28T22:03:49.676Z,3.83
2022-11-28T22:06:20.047Z,3.77
2022-11-28T22:08:48.563Z,3.72
2022-11-28T22:11:16.160Z,3.68
2022-11-28T22:13:45.223Z,3.69
2022-11-28T22:16:16.044Z,3.65
2022-11-28T22:18:45.661Z,3.61
2022-11-28T22:21:49.892Z,3.63
2022-11-28T22:24:02.581Z,3.59
2022-11-28T22:26:29.726Z,3.60
2022-11-28T22:28:58.634Z,3.55
2022-11-28T22:31:25.972Z,3.61
2022-11-28T22:33:54.365Z,3.59
2022-11-28T22:36:21.887Z,3.57
2022-11-28T22:38:53.575Z,3.55
2022-11-28T22:41:28.496Z,3.54
2022-11-28T22:43:57.107Z,3.53
2022-11-28T22:46:24.458Z,3.51
2022-11-28T22:48:52.045Z,3.46
2022-11-28T22:51:21.952Z,3.47
2022-11-28T22:53:52.796Z,3.47
2022-11-28T22:56:19.971Z,3.46
2022-11-28T22:58:46.852Z,3.47
2022-11-28T23:01:15.747Z,3.42
2022-11-28T23:03:44.231Z,3.38
2022-11-28T23:06:13.300Z,3.30
2022-11-28T23:08:42.233Z,3.24
2022-11-28T23:11:12.496Z,3.23
2022-11-28T23:13:39.910Z,3.22
2022-11-28T23:16:15.327Z,3.18
2022-11-28T23:18:43.205Z,3.12
2022-11-28T23:21:16.044Z,3.02
2022-11-28T23:23:45.831Z,3.04
2022-11-28T23:26:14.838Z,3.02
2022-11-28T23:28:42.276Z,3.01
2022-11-28T23:31:13.116Z,3.03
2022-11-28T23:33:40.485Z,2.89
2022-11-28T23:36:13.402Z,3.06
2022-11-28T23:38:40.342Z,3.05
2022-11-28T23:41:09.127Z,3.05
2022-11-28T23:43:36.013Z,3.04
2022-11-28T23:46:03.811Z,3.13
2022-11-28T23:48:31.022Z,3.15
2022-11-28T23:50:58.263Z,3.16
2022-11-28T23:53:25.401Z,3.16
2022-11-28T23:55:52.508Z,3.16
2022-11-28T23:58:20.975Z,3.15
